sensor_id;sensor_type;location;lat;lon;timestamp;P1;durP1;ratioP1;P2;durP2;ratioP2
8540;SDS011;4308;51.294;6.590;2022-11-15T00:01:05;15.77;;;9.53;;
8540;SDS011;4308;51.294;6.590;2022-11-15T00:03:34;14.47;;;10.27;;
8540;SDS011;4308;51.294;6.590;2022-11-15T00:06:03;12.23;;;9.13;;
8540;SDS011;4308;51.294;6.590;2022-11-15T00:08:32;13.50;;;9.80;;
8540;SDS011;4308;51.294;6.590;2022-11-15T00:11:01;14.27;;;10.20;;
8540;SDS011;4308;51.294;6.590;2022-11-15T00:13:29;11.73;;;9.50;;
8540;SDS011;4308;51.294;6.590;2022-11-15T00:15:58;14.20;;;9.83;;
8540;SDS011;4308;51.294;6.590;2022-11-15T00:18:26;12.83;;;9.63;;
8540;SDS011;4308;51.294;6.590;2022-11-15T00:20:55;14.13;;;10.00;;
8540;SDS011;4308;51.294;6.590;2022-11-15T00:23:24;15.07;;;8.97;;
8540;SDS011;4308;51.294;6.590;2022-11-15T00:25:58;14.13;;;9.47;;
8540;SDS011;4308;51.294;6.590;2022-11-15T00:28:27;14.90;;;10.27;;
8540;SDS011;4308;51.294;6.590;2022-11-15T00:31:05;12.70;;;9.43;;
8540;SDS011;4308;51.294;6.590;2022-11-15T00:33:34;15.07;;;10.03;;
8540;SDS011;4308;51.294;6.590;2022-11-15T00:36:06;15.30;;;9.87;;
8540;SDS011;4308;51.294;6.590;2022-11-15T00:38:36;13.73;;;9.10;;
8540;SDS011;4308;51.294;6.590;2022-11-15T00:41:06;11.53;;;9.27;;
8540;SDS011;4308;51.294;6.590;2022-11-15T00:43:36;12.77;;;8.07;;
8540;SDS011;4308;51.294;6.590;2022-11-15T00:46:04;12.43;;;9.67;;
8540;SDS011;4308;51.294;6.590;2022-11-15T00:48:32;11.23;;;8.97;;
8540;SDS011;4308;51.294;6.590;2022-11-15T00:51:01;10.33;;;8.87;;
8540;SDS011;4308;51.294;6.590;2022-11-15T00:53:29;12.60;;;8.40;;
8540;SDS011;4308;51.294;6.590;2022-11-15T00:55:58;15.90;;;9.23;;
8540;SDS011;4308;51.294;6.590;2022-11-15T00:58:34;11.23;;;8.57;;
8540;SDS011;4308;51.294;6.590;2022-11-15T01:01:06;9.37;;;7.83;;
8540;SDS011;4308;51.294;6.590;2022-11-15T01:03:35;9.63;;;7.70;;
8540;SDS011;4308;51.294;6.590;2022-11-15T01:06:04;10.20;;;8.43;;
8540;SDS011;4308;51.294;6.590;2022-11-15T01:08:33;15.07;;;9.00;;
8540;SDS011;4308;51.294;6.590;2022-11-15T01:11:04;12.23;;;8.77;;
8540;SDS011;4308;51.294;6.590;2022-11-15T01:13:33;12.17;;;8.47;;
8540;SDS011;4308;51.294;6.590;2022-11-15T01:16:05;14.00;;;8.70;;
8540;SDS011;4308;51.294;6.590;2022-11-15T01:18:33;10.87;;;8.83;;
8540;SDS011;4308;51.294;6.590;2022-11-15T01:21:04;13.17;;;9.17;;
8540;SDS011;4308;51.294;6.590;2022-11-15T01:23:32;13.47;;;8.73;;
8540;SDS011;4308;51.294;6.590;2022-11-15T01:26:00;12.13;;;8.47;;
8540;SDS011;4308;51.294;6.590;2022-11-15T01:28:31;12.70;;;8.67;;
8540;SDS011;4308;51.294;6.590;2022-11-15T01:31:04;12.10;;;8.00;;
8540;SDS011;4308;51.294;6.590;2022-11-15T01:33:33;11.90;;;8.67;;
8540;SDS011;4308;51.294;6.590;2022-11-15T01:36:05;19.73;;;9.00;;
8540;SDS011;4308;51.294;6.590;2022-11-15T01:38:33;11.27;;;8.40;;
8540;SDS011;4308;51.294;6.590;2022-11-15T01:41:00;11.13;;;8.33;;
8540;SDS011;4308;51.294;6.590;2022-11-15T01:43:30;11.80;;;9.83;;
8540;SDS011;4308;51.294;6.590;2022-11-15T01:46:06;14.87;;;8.83;;
8540;SDS011;4308;51.294;6.590;2022-11-15T01:48:39;12.87;;;9.00;;
8540;SDS011;4308;51.294;6.590;2022-11-15T01:51:10;11.60;;;9.40;;
8540;SDS011;4308;51.294;6.590;2022-11-15T01:53:40;11.00;;;8.33;;
8540;SDS011;4308;51.294;6.590;2022-11-15T01:56:11;12.20;;;9.23;;
8540;SDS011;4308;51.294;6.590;2022-11-15T01:58:43;12.97;;;9.27;;
8540;SDS011;4308;51.294;6.590;2022-11-15T02:01:12;14.73;;;8.83;;
8540;SDS011;4308;51.294;6.590;2022-11-15T02:03:44;11.77;;;8.10;;
8540;SDS011;4308;51.294;6.590;2022-11-15T02:06:13;15.00;;;8.77;;
8540;SDS011;4308;51.294;6.590;2022-11-15T02:08:42;11.23;;;8.37;;
8540;SDS011;4308;51.294;6.590;2022-11-15T02:11:10;11.70;;;8.30;;
8540;SDS011;4308;51.294;6.590;2022-11-15T02:13:39;15.23;;;8.73;;
8540;SDS011;4308;51.294;6.590;2022-11-15T02:16:33;10.07;;;8.20;;
8540;SDS011;4308;51.294;6.590;2022-11-15T02:19:02;11.83;;;7.87;;
8540;SDS011;4308;51.294;6.590;2022-11-15T02:21:37;10.50;;;8.80;;
8540;SDS011;4308;51.294;6.590;2022-11-15T02:27:05;11.27;;;8.83;;
8540;SDS011;4308;51.294;6.590;2022-11-15T02:35:16;12.73;;;8.30;;
8540;SDS011;4308;51.294;6.590;2022-11-15T02:43:10;10.27;;;7.13;;
8540;SDS011;4308;51.294;6.590;2022-11-15T02:45:40;11.13;;;8.03;;
8540;SDS011;4308;51.294;6.590;2022-11-15T02:48:12;12.13;;;7.93;;
8540;SDS011;4308;51.294;6.590;2022-11-15T02:50:43;15.50;;;8.73;;
8540;SDS011;4308;51.294;6.590;2022-11-15T02:53:11;10.80;;;7.73;;
8540;SDS011;4308;51.294;6.590;2022-11-15T02:55:48;12.53;;;7.57;;
8540;SDS011;4308;51.294;6.590;2022-11-15T03:01:34;12.27;;;8.00;;
8540;SDS011;4308;51.294;6.590;2022-11-15T03:06:13;9.20;;;7.13;;
8540;SDS011;4308;51.294;6.590;2022-11-15T03:11:14;14.47;;;8.27;;
8540;SDS011;4308;51.294;6.590;2022-11-15T03:19:14;11.20;;;8.33;;
8540;SDS011;4308;51.294;6.590;2022-11-15T03:21:44;14.03;;;8.23;;
8540;SDS011;4308;51.294;6.590;2022-11-15T03:24:14;10.47;;;8.10;;
8540;SDS011;4308;51.294;6.590;2022-11-15T03:26:51;11.70;;;7.50;;
8540;SDS011;4308;51.294;6.590;2022-11-15T03:29:22;11.13;;;8.73;;
8540;SDS011;4308;51.294;6.590;2022-11-15T03:31:53;9.80;;;8.70;;
8540;SDS011;4308;51.294;6.590;2022-11-15T03:34:30;12.97;;;8.47;;
8540;SDS011;4308;51.294;6.590;2022-11-15T03:36:58;12.80;;;8.03;;
8540;SDS011;4308;51.294;6.590;2022-11-15T03:39:26;14.07;;;8.87;;
8540;SDS011;4308;51.294;6.590;2022-11-15T03:47:17;11.40;;;7.80;;
8540;SDS011;4308;51.294;6.590;2022-11-15T03:49:51;15.20;;;9.17;;
8540;SDS011;4308;51.294;6.590;2022-11-15T03:52:20;13.73;;;8.47;;
8540;SDS011;4308;51.294;6.590;2022-11-15T03:54:50;10.73;;;7.57;;
8540;SDS011;4308;51.294;6.590;2022-11-15T03:57:19;10.70;;;7.37;;
8540;SDS011;4308;51.294;6.590;2022-11-15T03:59:47;12.07;;;7.77;;
8540;SDS011;4308;51.294;6.590;2022-11-15T04:02:16;9.87;;;8.37;;
8540;SDS011;4308;51.294;6.590;2022-11-15T04:04:44;12.00;;;7.60;;
8540;SDS011;4308;51.294;6.590;2022-11-15T04:07:13;9.57;;;7.47;;
8540;SDS011;4308;51.294;6.590;2022-11-15T04:09:42;10.20;;;7.53;;
8540;SDS011;4308;51.294;6.590;2022-11-15T04:12:10;10.83;;;6.93;;
8540;SDS011;4308;51.294;6.590;2022-11-15T04:14:38;9.53;;;7.63;;
8540;SDS011;4308;51.294;6.590;2022-11-15T04:17:07;10.37;;;7.07;;
8540;SDS011;4308;51.294;6.590;2022-11-15T04:19:35;12.10;;;7.60;;
8540;SDS011;4308;51.294;6.590;2022-11-15T04:22:04;11.37;;;8.00;;
8540;SDS011;4308;51.294;6.590;2022-11-15T04:24:32;10.60;;;8.23;;
8540;SDS011;4308;51.294;6.590;2022-11-15T04:27:01;11.50;;;7.50;;
8540;SDS011;4308;51.294;6.590;2022-11-15T04:29:29;10.13;;;8.03;;
8540;SDS011;4308;51.294;6.590;2022-11-15T04:31:58;11.77;;;7.60;;
8540;SDS011;4308;51.294;6.590;2022-11-15T04:34:26;9.57;;;7.77;;
8540;SDS011;4308;51.294;6.590;2022-11-15T04:36:54;11.63;;;7.47;;
8540;SDS011;4308;51.294;6.590;2022-11-15T04:39:21;8.97;;;6.97;;
8540;SDS011;4308;51.294;6.590;2022-11-15T04:41:48;9.43;;;6.80;;
8540;SDS011;4308;51.294;6.590;2022-11-15T04:44:16;8.97;;;6.63;;
8540;SDS011;4308;51.294;6.590;2022-11-15T04:46:43;11.30;;;7.50;;
8540;SDS011;4308;51.294;6.590;2022-11-15T04:49:11;10.60;;;8.07;;
8540;SDS011;4308;51.294;6.590;2022-11-15T04:51:38;12.60;;;8.10;;
8540;SDS011;4308;51.294;6.590;2022-11-15T04:54:06;14.17;;;8.03;;
8540;SDS011;4308;51.294;6.590;2022-11-15T04:56:33;10.57;;;7.90;;
8540;SDS011;4308;51.294;6.590;2022-11-15T04:59:01;11.03;;;7.50;;
8540;SDS011;4308;51.294;6.590;2022-11-15T05:01:28;13.30;;;8.00;;
8540;SDS011;4308;51.294;6.590;2022-11-15T05:03:56;10.67;;;7.43;;
8540;SDS011;4308;51.294;6.590;2022-11-15T05:06:23;12.33;;;7.40;;
8540;SDS011;4308;51.294;6.590;2022-11-15T05:08:51;11.67;;;7.57;;
8540;SDS011;4308;51.294;6.590;2022-11-15T05:11:19;9.80;;;6.83;;
8540;SDS011;4308;51.294;6.590;2022-11-15T05:13:46;8.57;;;7.60;;
8540;SDS011;4308;51.294;6.590;2022-11-15T05:16:14;8.63;;;7.10;;
8540;SDS011;4308;51.294;6.590;2022-11-15T05:18:41;11.33;;;7.23;;
8540;SDS011;4308;51.294;6.590;2022-11-15T05:21:10;10.90;;;7.43;;
8540;SDS011;4308;51.294;6.590;2022-11-15T05:23:38;10.03;;;7.40;;
8540;SDS011;4308;51.294;6.590;2022-11-15T05:26:06;7.97;;;6.83;;
8540;SDS011;4308;51.294;6.590;2022-11-15T05:28:35;9.50;;;7.37;;
8540;SDS011;4308;51.294;6.590;2022-11-15T05:31:04;11.07;;;7.30;;
8540;SDS011;4308;51.294;6.590;2022-11-15T05:33:32;10.17;;;7.17;;
8540;SDS011;4308;51.294;6.590;2022-11-15T05:36:10;12.87;;;6.93;;
8540;SDS011;4308;51.294;6.590;2022-11-15T05:38:39;8.43;;;6.33;;
8540;SDS011;4308;51.294;6.590;2022-11-15T05:41:07;8.20;;;7.20;;
8540;SDS011;4308;51.294;6.590;2022-11-15T05:43:35;8.37;;;6.40;;
8540;SDS011;4308;51.294;6.590;2022-11-15T05:46:03;8.77;;;6.57;;
8540;SDS011;4308;51.294;6.590;2022-11-15T05:48:32;8.03;;;6.47;;
8540;SDS011;4308;51.294;6.590;2022-11-15T05:51:03;8.27;;;6.53;;
8540;SDS011;4308;51.294;6.590;2022-11-15T05:53:33;9.10;;;6.77;;
8540;SDS011;4308;51.294;6.590;2022-11-15T05:56:03;8.47;;;7.13;;
8540;SDS011;4308;51.294;6.590;2022-11-15T05:58:33;8.03;;;6.90;;
8540;SDS011;4308;51.294;6.590;2022-11-15T06:01:01;8.70;;;6.97;;
8540;SDS011;4308;51.294;6.590;2022-11-15T06:03:28;11.50;;;6.93;;
8540;SDS011;4308;51.294;6.590;2022-11-15T06:05:56;8.60;;;7.00;;
8540;SDS011;4308;51.294;6.590;2022-11-15T06:08:23;9.20;;;7.00;;
8540;SDS011;4308;51.294;6.590;2022-11-15T06:10:51;10.13;;;7.00;;
8540;SDS011;4308;51.294;6.590;2022-11-15T06:13:18;8.60;;;6.23;;
8540;SDS011;4308;51.294;6.590;2022-11-15T06:15:45;8.90;;;6.57;;
8540;SDS011;4308;51.294;6.590;2022-11-15T06:18:12;12.00;;;7.40;;
8540;SDS011;4308;51.294;6.590;2022-11-15T06:20:39;8.13;;;6.47;;
8540;SDS011;4308;51.294;6.590;2022-11-15T06:23:06;9.90;;;6.90;;
8540;SDS011;4308;51.294;6.590;2022-11-15T06:25:35;9.60;;;6.57;;
8540;SDS011;4308;51.294;6.590;2022-11-15T06:28:03;11.17;;;6.50;;
8540;SDS011;4308;51.294;6.590;2022-11-15T06:30:31;9.90;;;6.37;;
8540;SDS011;4308;51.294;6.590;2022-11-15T06:33:03;7.97;;;6.77;;
8540;SDS011;4308;51.294;6.590;2022-11-15T06:35:33;7.23;;;5.77;;
8540;SDS011;4308;51.294;6.590;2022-11-15T06:38:05;8.33;;;6.47;;
8540;SDS011;4308;51.294;6.590;2022-11-15T06:40:34;8.33;;;6.03;;
8540;SDS011;4308;51.294;6.590;2022-11-15T06:43:03;7.47;;;5.67;;
8540;SDS011;4308;51.294;6.590;2022-11-15T06:45:32;10.13;;;5.97;;
8540;SDS011;4308;51.294;6.590;2022-11-15T06:48:00;9.20;;;6.10;;
8540;SDS011;4308;51.294;6.590;2022-11-15T06:50:28;7.77;;;5.47;;
8540;SDS011;4308;51.294;6.590;2022-11-15T06:53:00;10.53;;;6.17;;
8540;SDS011;4308;51.294;6.590;2022-11-15T06:55:28;6.83;;;5.23;;
8540;SDS011;4308;51.294;6.590;2022-11-15T06:57:58;6.90;;;5.30;;
8540;SDS011;4308;51.294;6.590;2022-11-15T07:00:26;5.43;;;3.93;;
8540;SDS011;4308;51.294;6.590;2022-11-15T07:02:54;6.20;;;4.27;;
8540;SDS011;4308;51.294;6.590;2022-11-15T07:05:22;6.80;;;4.93;;
8540;SDS011;4308;51.294;6.590;2022-11-15T07:07:51;7.80;;;4.93;;
8540;SDS011;4308;51.294;6.590;2022-11-15T07:10:20;7.70;;;4.80;;
8540;SDS011;4308;51.294;6.590;2022-11-15T07:12:49;5.87;;;4.70;;
8540;SDS011;4308;51.294;6.590;2022-11-15T07:15:18;8.37;;;5.50;;
8540;SDS011;4308;51.294;6.590;2022-11-15T07:17:46;7.77;;;4.80;;
8540;SDS011;4308;51.294;6.590;2022-11-15T07:20:14;5.93;;;4.63;;
8540;SDS011;4308;51.294;6.590;2022-11-15T07:22:43;9.13;;;4.70;;
8540;SDS011;4308;51.294;6.590;2022-11-15T07:25:11;8.40;;;4.80;;
8540;SDS011;4308;51.294;6.590;2022-11-15T07:27:40;5.37;;;4.03;;
8540;SDS011;4308;51.294;6.590;2022-11-15T07:30:08;4.07;;;2.73;;
8540;SDS011;4308;51.294;6.590;2022-11-15T07:32:36;2.00;;;1.80;;
8540;SDS011;4308;51.294;6.590;2022-11-15T07:35:05;1.97;;;1.10;;
8540;SDS011;4308;51.294;6.590;2022-11-15T07:37:33;3.70;;;1.37;;
8540;SDS011;4308;51.294;6.590;2022-11-15T07:40:01;0.90;;;0.90;;
8540;SDS011;4308;51.294;6.590;2022-11-15T07:42:33;2.97;;;1.00;;
8540;SDS011;4308;51.294;6.590;2022-11-15T07:45:01;1.10;;;1.00;;
8540;SDS011;4308;51.294;6.590;2022-11-15T07:47:30;2.53;;;1.10;;
8540;SDS011;4308;51.294;6.590;2022-11-15T07:49:58;1.13;;;0.87;;
8540;SDS011;4308;51.294;6.590;2022-11-15T07:52:28;1.97;;;1.00;;
8540;SDS011;4308;51.294;6.590;2022-11-15T07:54:57;2.97;;;1.30;;
8540;SDS011;4308;51.294;6.590;2022-11-15T07:57:26;2.13;;;1.40;;
8540;SDS011;4308;51.294;6.590;2022-11-15T07:59:54;1.00;;;1.00;;
8540;SDS011;4308;51.294;6.590;2022-11-15T08:02:23;1.10;;;1.00;;
8540;SDS011;4308;51.294;6.590;2022-11-15T08:04:56;1.37;;;1.00;;
8540;SDS011;4308;51.294;6.590;2022-11-15T08:07:24;2.50;;;1.20;;
8540;SDS011;4308;51.294;6.590;2022-11-15T08:09:53;2.50;;;1.67;;
8540;SDS011;4308;51.294;6.590;2022-11-15T08:12:22;1.53;;;1.20;;
8540;SDS011;4308;51.294;6.590;2022-11-15T08:14:51;1.20;;;1.10;;
8540;SDS011;4308;51.294;6.590;2022-11-15T08:17:20;1.10;;;1.00;;
8540;SDS011;4308;51.294;6.590;2022-11-15T08:19:49;1.73;;;0.93;;
8540;SDS011;4308;51.294;6.590;2022-11-15T08:22:18;1.53;;;1.10;;
8540;SDS011;4308;51.294;6.590;2022-11-15T08:24:46;2.57;;;1.40;;
8540;SDS011;4308;51.294;6.590;2022-11-15T08:27:14;4.67;;;1.30;;
8540;SDS011;4308;51.294;6.590;2022-11-15T08:29:43;1.53;;;1.00;;
8540;SDS011;4308;51.294;6.590;2022-11-15T08:32:11;1.47;;;1.20;;
8540;SDS011;4308;51.294;6.590;2022-11-15T08:34:38;1.43;;;1.20;;
8540;SDS011;4308;51.294;6.590;2022-11-15T08:37:06;3.20;;;1.10;;
8540;SDS011;4308;51.294;6.590;2022-11-15T08:39:33;1.70;;;1.23;;
8540;SDS011;4308;51.294;6.590;2022-11-15T08:42:02;2.37;;;1.83;;
8540;SDS011;4308;51.294;6.590;2022-11-15T08:44:30;4.70;;;1.40;;
8540;SDS011;4308;51.294;6.590;2022-11-15T08:46:57;2.83;;;1.50;;
8540;SDS011;4308;51.294;6.590;2022-11-15T08:49:25;2.60;;;1.30;;
8540;SDS011;4308;51.294;6.590;2022-11-15T08:51:52;3.10;;;1.37;;
8540;SDS011;4308;51.294;6.590;2022-11-15T08:54:20;1.30;;;1.20;;
8540;SDS011;4308;51.294;6.590;2022-11-15T08:56:47;4.00;;;1.67;;
8540;SDS011;4308;51.294;6.590;2022-11-15T08:59:15;1.20;;;1.10;;
8540;SDS011;4308;51.294;6.590;2022-11-15T09:01:42;0.90;;;0.90;;
8540;SDS011;4308;51.294;6.590;2022-11-15T09:04:10;1.30;;;1.20;;
8540;SDS011;4308;51.294;6.590;2022-11-15T09:06:37;1.17;;;0.97;;
8540;SDS011;4308;51.294;6.590;2022-11-15T09:09:09;3.63;;;1.17;;
8540;SDS011;4308;51.294;6.590;2022-11-15T09:11:36;3.33;;;1.10;;
8540;SDS011;4308;51.294;6.590;2022-11-15T09:14:03;2.03;;;1.10;;
8540;SDS011;4308;51.294;6.590;2022-11-15T09:16:31;2.70;;;1.10;;
8540;SDS011;4308;51.294;6.590;2022-11-15T09:18:58;1.50;;;1.20;;
8540;SDS011;4308;51.294;6.590;2022-11-15T09:21:26;2.97;;;1.40;;
8540;SDS011;4308;51.294;6.590;2022-11-15T09:23:53;3.07;;;1.40;;
8540;SDS011;4308;51.294;6.590;2022-11-15T09:26:21;1.60;;;1.50;;
8540;SDS011;4308;51.294;6.590;2022-11-15T09:28:48;3.63;;;1.70;;
8540;SDS011;4308;51.294;6.590;2022-11-15T09:31:16;3.23;;;2.03;;
8540;SDS011;4308;51.294;6.590;2022-11-15T09:33:47;4.13;;;2.10;;
8540;SDS011;4308;51.294;6.590;2022-11-15T09:36:14;3.13;;;2.47;;
8540;SDS011;4308;51.294;6.590;2022-11-15T09:38:42;6.90;;;2.53;;
8540;SDS011;4308;51.294;6.590;2022-11-15T09:48:56;8.83;;;2.03;;
8540;SDS011;4308;51.294;6.590;2022-11-15T09:51:26;2.40;;;1.50;;
8540;SDS011;4308;51.294;6.590;2022-11-15T09:53:57;2.53;;;1.73;;
8540;SDS011;4308;51.294;6.590;2022-11-15T09:56:47;3.93;;;1.60;;
8540;SDS011;4308;51.294;6.590;2022-11-15T10:04:31;5.17;;;2.07;;
8540;SDS011;4308;51.294;6.590;2022-11-15T10:07:04;3.87;;;1.93;;
8540;SDS011;4308;51.294;6.590;2022-11-15T10:09:45;4.93;;;1.93;;
8540;SDS011;4308;51.294;6.590;2022-11-15T10:12:13;3.70;;;2.20;;
8540;SDS011;4308;51.294;6.590;2022-11-15T10:14:42;2.60;;;1.70;;
8540;SDS011;4308;51.294;6.590;2022-11-15T10:20:11;4.63;;;1.93;;
8540;SDS011;4308;51.294;6.590;2022-11-15T10:22:44;6.47;;;1.83;;
8540;SDS011;4308;51.294;6.590;2022-11-15T10:25:17;1.73;;;1.47;;
8540;SDS011;4308;51.294;6.590;2022-11-15T10:27:50;2.80;;;1.87;;
8540;SDS011;4308;51.294;6.590;2022-11-15T10:30:19;4.80;;;1.63;;
8540;SDS011;4308;51.294;6.590;2022-11-15T10:32:47;2.13;;;1.40;;
8540;SDS011;4308;51.294;6.590;2022-11-15T10:35:16;2.67;;;1.40;;
8540;SDS011;4308;51.294;6.590;2022-11-15T10:37:43;3.87;;;1.57;;
8540;SDS011;4308;51.294;6.590;2022-11-15T10:40:18;4.43;;;2.00;;
8540;SDS011;4308;51.294;6.590;2022-11-15T10:42:46;5.13;;;2.40;;
8540;SDS011;4308;51.294;6.590;2022-11-15T10:45:24;5.23;;;2.00;;
8540;SDS011;4308;51.294;6.590;2022-11-15T10:47:52;3.53;;;1.93;;
8540;SDS011;4308;51.294;6.590;2022-11-15T10:50:30;3.77;;;1.70;;
8540;SDS011;4308;51.294;6.590;2022-11-15T10:52:58;3.30;;;1.87;;
8540;SDS011;4308;51.294;6.590;2022-11-15T10:55:27;6.73;;;2.03;;
8540;SDS011;4308;51.294;6.590;2022-11-15T10:58:01;3.30;;;1.80;;
8540;SDS011;4308;51.294;6.590;2022-11-15T11:00:31;3.67;;;1.80;;
8540;SDS011;4308;51.294;6.590;2022-11-15T11:05:31;5.07;;;1.97;;
8540;SDS011;4308;51.294;6.590;2022-11-15T11:10:37;3.73;;;1.87;;
8540;SDS011;4308;51.294;6.590;2022-11-15T11:21:13;3.23;;;1.70;;
8540;SDS011;4308;51.294;6.590;2022-11-15T11:23:54;5.13;;;1.60;;
8540;SDS011;4308;51.294;6.590;2022-11-15T11:31:58;2.07;;;1.50;;
8540;SDS011;4308;51.294;6.590;2022-11-15T11:47:34;1.80;;;1.10;;
8540;SDS011;4308;51.294;6.590;2022-11-15T11:50:30;2.07;;;1.10;;
8540;SDS011;4308;51.294;6.590;2022-11-15T11:53:30;3.23;;;1.27;;
8540;SDS011;4308;51.294;6.590;2022-11-15T11:56:01;3.27;;;1.47;;
8540;SDS011;4308;51.294;6.590;2022-11-15T12:04:04;7.53;;;1.47;;
8540;SDS011;4308;51.294;6.590;2022-11-15T12:06:52;4.90;;;1.37;;
8540;SDS011;4308;51.294;6.590;2022-11-15T12:09:27;3.23;;;1.00;;
8540;SDS011;4308;51.294;6.590;2022-11-15T12:12:00;3.10;;;1.50;;
8540;SDS011;4308;51.294;6.590;2022-11-15T12:14:35;1.57;;;1.00;;
8540;SDS011;4308;51.294;6.590;2022-11-15T12:17:08;4.53;;;1.53;;
8540;SDS011;4308;51.294;6.590;2022-11-15T12:19:35;3.27;;;1.07;;
8540;SDS011;4308;51.294;6.590;2022-11-15T12:24:54;3.77;;;1.27;;
8540;SDS011;4308;51.294;6.590;2022-11-15T12:29:54;3.97;;;1.60;;
8540;SDS011;4308;51.294;6.590;2022-11-15T12:32:28;4.30;;;1.30;;
8540;SDS011;4308;51.294;6.590;2022-11-15T12:34:56;4.17;;;1.37;;
8540;SDS011;4308;51.294;6.590;2022-11-15T12:40:34;2.60;;;1.10;;
8540;SDS011;4308;51.294;6.590;2022-11-15T12:43:03;3.63;;;1.47;;
8540;SDS011;4308;51.294;6.590;2022-11-15T12:45:32;2.77;;;1.00;;
8540;SDS011;4308;51.294;6.590;2022-11-15T12:58:50;2.50;;;1.10;;
8540;SDS011;4308;51.294;6.590;2022-11-15T13:14:47;4.10;;;1.10;;
8540;SDS011;4308;51.294;6.590;2022-11-15T13:19:52;1.63;;;1.00;;
8540;SDS011;4308;51.294;6.590;2022-11-15T13:22:20;2.93;;;1.20;;
8540;SDS011;4308;51.294;6.590;2022-11-15T13:24:47;3.80;;;1.10;;
8540;SDS011;4308;51.294;6.590;2022-11-15T13:27:15;5.47;;;0.90;;
8540;SDS011;4308;51.294;6.590;2022-11-15T13:29:45;2.33;;;1.00;;
8540;SDS011;4308;51.294;6.590;2022-11-15T13:32:13;2.03;;;0.97;;
8540;SDS011;4308;51.294;6.590;2022-11-15T13:34:44;3.97;;;1.10;;
8540;SDS011;4308;51.294;6.590;2022-11-15T13:39:48;2.73;;;0.77;;
8540;SDS011;4308;51.294;6.590;2022-11-15T13:42:17;1.70;;;1.13;;
8540;SDS011;4308;51.294;6.590;2022-11-15T13:44:58;3.67;;;1.10;;
8540;SDS011;4308;51.294;6.590;2022-11-15T13:47:27;3.60;;;1.20;;
8540;SDS011;4308;51.294;6.590;2022-11-15T13:49:57;4.80;;;1.20;;
8540;SDS011;4308;51.294;6.590;2022-11-15T13:52:27;3.43;;;1.30;;
8540;SDS011;4308;51.294;6.590;2022-11-15T13:55:02;1.60;;;1.20;;
8540;SDS011;4308;51.294;6.590;2022-11-15T13:57:35;1.57;;;1.17;;
8540;SDS011;4308;51.294;6.590;2022-11-15T14:00:23;1.47;;;1.00;;
8540;SDS011;4308;51.294;6.590;2022-11-15T14:02:51;3.30;;;1.40;;
8540;SDS011;4308;51.294;6.590;2022-11-15T14:05:20;5.13;;;1.73;;
8540;SDS011;4308;51.294;6.590;2022-11-15T14:07:55;4.37;;;1.20;;
8540;SDS011;4308;51.294;6.590;2022-11-15T14:12:53;2.77;;;1.27;;
8540;SDS011;4308;51.294;6.590;2022-11-15T14:15:31;4.03;;;1.50;;
8540;SDS011;4308;51.294;6.590;2022-11-15T14:17:59;2.53;;;1.20;;
8540;SDS011;4308;51.294;6.590;2022-11-15T14:20:31;4.70;;;1.30;;
8540;SDS011;4308;51.294;6.590;2022-11-15T14:23:00;2.80;;;1.40;;
8540;SDS011;4308;51.294;6.590;2022-11-15T14:25:29;2.13;;;1.33;;
8540;SDS011;4308;51.294;6.590;2022-11-15T14:30:36;5.53;;;1.80;;
8540;SDS011;4308;51.294;6.590;2022-11-15T14:33:16;2.43;;;1.50;;
8540;SDS011;4308;51.294;6.590;2022-11-15T14:35:44;3.70;;;1.50;;
8540;SDS011;4308;51.294;6.590;2022-11-15T14:38:11;2.50;;;1.40;;
8540;SDS011;4308;51.294;6.590;2022-11-15T14:40:39;4.03;;;1.57;;
8540;SDS011;4308;51.294;6.590;2022-11-15T14:43:08;1.90;;;1.57;;
8540;SDS011;4308;51.294;6.590;2022-11-15T14:45:35;3.60;;;1.97;;
8540;SDS011;4308;51.294;6.590;2022-11-15T14:48:03;4.23;;;1.97;;
8540;SDS011;4308;51.294;6.590;2022-11-15T14:50:31;2.87;;;1.70;;
8540;SDS011;4308;51.294;6.590;2022-11-15T14:52:59;5.27;;;1.87;;
8540;SDS011;4308;51.294;6.590;2022-11-15T14:55:27;3.47;;;2.00;;
8540;SDS011;4308;51.294;6.590;2022-11-15T14:57:55;3.03;;;2.20;;
8540;SDS011;4308;51.294;6.590;2022-11-15T15:00:23;3.63;;;2.30;;
8540;SDS011;4308;51.294;6.590;2022-11-15T15:02:52;5.70;;;2.20;;
8540;SDS011;4308;51.294;6.590;2022-11-15T15:05:20;4.03;;;2.17;;
8540;SDS011;4308;51.294;6.590;2022-11-15T15:07:48;7.03;;;2.60;;
8540;SDS011;4308;51.294;6.590;2022-11-15T15:10:17;6.53;;;2.30;;
8540;SDS011;4308;51.294;6.590;2022-11-15T15:13:04;4.10;;;2.73;;
8540;SDS011;4308;51.294;6.590;2022-11-15T15:15:33;3.83;;;2.50;;
8540;SDS011;4308;51.294;6.590;2022-11-15T15:18:01;8.53;;;2.97;;
8540;SDS011;4308;51.294;6.590;2022-11-15T15:20:29;6.00;;;3.60;;
8540;SDS011;4308;51.294;6.590;2022-11-15T15:22:57;3.43;;;2.43;;
8540;SDS011;4308;51.294;6.590;2022-11-15T15:25:28;5.90;;;3.60;;
8540;SDS011;4308;51.294;6.590;2022-11-15T15:27:57;7.30;;;4.37;;
8540;SDS011;4308;51.294;6.590;2022-11-15T15:30:25;5.17;;;3.10;;
8540;SDS011;4308;51.294;6.590;2022-11-15T15:32:53;4.17;;;2.47;;
8540;SDS011;4308;51.294;6.590;2022-11-15T15:35:20;4.00;;;2.67;;
8540;SDS011;4308;51.294;6.590;2022-11-15T15:37:48;4.13;;;2.30;;
8540;SDS011;4308;51.294;6.590;2022-11-15T15:40:17;6.13;;;2.83;;
8540;SDS011;4308;51.294;6.590;2022-11-15T15:42:45;3.90;;;2.87;;
8540;SDS011;4308;51.294;6.590;2022-11-15T15:45:13;5.13;;;2.80;;
8540;SDS011;4308;51.294;6.590;2022-11-15T15:47:41;6.13;;;3.50;;
8540;SDS011;4308;51.294;6.590;2022-11-15T15:52:45;8.90;;;2.57;;
8540;SDS011;4308;51.294;6.590;2022-11-15T15:55:12;7.23;;;2.57;;
8540;SDS011;4308;51.294;6.590;2022-11-15T15:57:40;4.57;;;2.97;;
8540;SDS011;4308;51.294;6.590;2022-11-15T16:00:08;6.33;;;2.60;;
8540;SDS011;4308;51.294;6.590;2022-11-15T16:02:36;9.27;;;2.70;;
8540;SDS011;4308;51.294;6.590;2022-11-15T16:05:06;5.17;;;3.00;;
8540;SDS011;4308;51.294;6.590;2022-11-15T16:07:34;10.77;;;4.33;;
8540;SDS011;4308;51.294;6.590;2022-11-15T16:12:48;6.17;;;5.00;;
8540;SDS011;4308;51.294;6.590;2022-11-15T16:15:16;6.67;;;5.43;;
8540;SDS011;4308;51.294;6.590;2022-11-15T16:17:45;6.57;;;4.10;;
8540;SDS011;4308;51.294;6.590;2022-11-15T16:20:22;4.70;;;3.23;;
8540;SDS011;4308;51.294;6.590;2022-11-15T16:22:50;3.73;;;2.63;;
8540;SDS011;4308;51.294;6.590;2022-11-15T16:25:17;5.10;;;3.03;;
8540;SDS011;4308;51.294;6.590;2022-11-15T16:27:45;8.83;;;3.37;;
8540;SDS011;4308;51.294;6.590;2022-11-15T16:30:14;12.67;;;7.83;;
8540;SDS011;4308;51.294;6.590;2022-11-15T16:32:42;11.73;;;7.67;;
8540;SDS011;4308;51.294;6.590;2022-11-15T16:35:13;16.60;;;11.30;;
8540;SDS011;4308;51.294;6.590;2022-11-15T16:37:41;5.23;;;3.60;;
8540;SDS011;4308;51.294;6.590;2022-11-15T16:40:30;13.17;;;8.37;;
8540;SDS011;4308;51.294;6.590;2022-11-15T16:42:57;4.43;;;2.93;;
8540;SDS011;4308;51.294;6.590;2022-11-15T16:45:25;4.10;;;3.13;;
8540;SDS011;4308;51.294;6.590;2022-11-15T16:47:53;8.30;;;2.73;;
8540;SDS011;4308;51.294;6.590;2022-11-15T16:50:22;12.23;;;5.87;;
8540;SDS011;4308;51.294;6.590;2022-11-15T16:52:50;16.87;;;8.07;;
8540;SDS011;4308;51.294;6.590;2022-11-15T16:55:18;21.30;;;8.80;;
8540;SDS011;4308;51.294;6.590;2022-11-15T16:57:45;12.80;;;5.90;;
8540;SDS011;4308;51.294;6.590;2022-11-15T17:00:13;14.63;;;6.80;;
8540;SDS011;4308;51.294;6.590;2022-11-15T17:02:45;16.10;;;7.67;;
8540;SDS011;4308;51.294;6.590;2022-11-15T17:05:13;11.30;;;5.97;;
8540;SDS011;4308;51.294;6.590;2022-11-15T17:07:46;9.97;;;4.53;;
8540;SDS011;4308;51.294;6.590;2022-11-15T17:10:14;16.00;;;7.10;;
8540;SDS011;4308;51.294;6.590;2022-11-15T17:12:42;7.77;;;4.60;;
8540;SDS011;4308;51.294;6.590;2022-11-15T17:15:10;11.80;;;6.30;;
8540;SDS011;4308;51.294;6.590;2022-11-15T17:17:38;11.03;;;6.20;;
8540;SDS011;4308;51.294;6.590;2022-11-15T17:20:08;14.00;;;6.53;;
8540;SDS011;4308;51.294;6.590;2022-11-15T17:22:39;13.07;;;5.57;;
8540;SDS011;4308;51.294;6.590;2022-11-15T17:25:07;13.30;;;5.87;;
8540;SDS011;4308;51.294;6.590;2022-11-15T17:27:34;8.73;;;3.60;;
8540;SDS011;4308;51.294;6.590;2022-11-15T17:30:02;12.97;;;6.30;;
8540;SDS011;4308;51.294;6.590;2022-11-15T17:32:30;6.10;;;3.90;;
8540;SDS011;4308;51.294;6.590;2022-11-15T17:34:58;12.57;;;4.70;;
8540;SDS011;4308;51.294;6.590;2022-11-15T17:37:25;23.53;;;11.17;;
8540;SDS011;4308;51.294;6.590;2022-11-15T17:39:52;23.50;;;10.63;;